Time;durP1;ratioP1;P1;durP2;ratioP2;P2;SDS_P1;SDS_P2;PMS_P1;PMS_P2;Temp;Humidity;BMP_temperature;BMP_pressure;BME280_temperature;BME280_humidity;BME280_pressure;Samples;Min_cycle;Max_cycle;Signal;HPM_P1;HPM_P2
2023/08/10 00:00:44;;;;;;;;;;;;;;;24.65;42.20;97159.41;4217221;28;5616;-62
2023/08/10 00:02:47;;;;;;;;;;;;;;;24.66;42.30;97161.03;4209969;28;5703;-62
2023/08/10 00:04:51;;;;;;;;;;;;;;;24.65;42.22;97155.91;4217282;28;5745;-63
2023/08/10 00:06:54;;;;;;;;;;;;;;;24.64;42.55;97157.00;4217080;28;5620;-63
2023/08/10 00:08:57;;;;;;;;;;;;;;;24.64;42.51;97162.41;4216246;28;5799;-63
2023/08/10 00:11:00;;;;;;;;;;;;;;;24.61;42.65;97152.94;4213627;28;5823;-63
2023/08/10 00:13:04;;;;;;;;;;;;;;;24.61;42.30;97142.13;4193407;28;5744;-63
2023/08/10 00:15:08;;;;;;;;;;;;;;;24.59;42.61;97147.03;4217266;28;5625;-62
2023/08/10 00:17:11;;;;;;;;;;;;;;;24.59;42.46;97146.22;4217108;28;5609;-63
2023/08/10 00:19:14;;;;;;;;;;;;;;;24.58;42.85;97153.50;4215628;28;5649;-62
2023/08/10 00:21:16;;;;;;;;;;;;;;;24.57;42.59;97146.47;4217111;28;5629;-62
2023/08/10 00:23:19;;;;;;;;;;;;;;;24.56;43.01;97155.66;4217281;28;5602;-63
2023/08/10 00:25:22;;;;;;;;;;;;;;;24.56;42.95;97144.03;4216123;28;5621;-62
2023/08/10 00:27:25;;;;;;;;;;;;;;;24.55;42.59;97145.94;4216511;28;5712;-64
2023/08/10 00:29:30;;;;;;;;;;;;;;;24.56;42.79;97149.44;4212017;28;5703;-63
2023/08/10 00:31:32;;;;;;;;;;;;;;;24.56;42.60;97152.13;4215833;28;5626;-62
2023/08/10 00:33:34;;;;;;;;;;;;;;;24.54;42.75;97151.59;4214397;28;5774;-62
2023/08/10 00:35:39;;;;;;;;;;;;;;;24.55;43.08;97145.13;4213659;28;5617;-62
2023/08/10 00:37:42;;;;;;;;;;;;;;;24.52;43.09;97146.47;4213059;28;5630;-62
2023/08/10 00:39:45;;;;;;;;;;;;;;;24.51;42.92;97144.88;4214400;28;5605;-63
2023/08/10 00:41:48;;;;;;;;;;;;;;;24.50;42.83;97145.16;4215210;28;5687;-62
2023/08/10 00:43:51;;;;;;;;;;;;;;;24.48;42.96;97145.41;4212909;28;5621;-63
2023/08/10 00:45:56;;;;;;;;;;;;;;;24.46;42.90;97134.06;4211180;28;5724;-62
2023/08/10 00:47:59;;;;;;;;;;;;;;;24.47;43.21;97148.41;4216429;28;5692;-61
2023/08/10 00:50:03;;;;;;;;;;;;;;;24.45;43.56;97139.72;4216675;28;5677;-62
2023/08/10 00:52:06;;;;;;;;;;;;;;;24.44;43.06;97149.72;4214336;28;5732;-62
2023/08/10 00:54:09;;;;;;;;;;;;;;;24.45;43.64;97145.13;4212669;28;5771;-62
2023/08/10 00:56:13;;;;;;;;;;;;;;;24.46;43.38;97138.66;4216544;28;5609;-62
2023/08/10 00:58:15;;;;;;;;;;;;;;;24.45;43.57;97137.84;4216884;28;5692;-62
2023/08/10 01:00:18;;;;;;;;;;;;;;;24.45;43.28;97147.84;4216783;28;5617;-62
2023/08/10 01:02:22;;;;;;;;;;;;;;;24.44;43.50;97143.53;4216648;28;5616;-62
2023/08/10 01:04:25;;;;;;;;;;;;;;;24.44;43.43;97143.53;4213271;28;5753;-62
2023/08/10 01:06:35;;;;;;;;;;;;;;;24.43;43.77;97139.19;4215113;28;5822;-62
2023/08/10 01:08:44;;;;;;;;;;;;;;;24.41;43.68;97136.78;4218903;28;5784;-62
2023/08/10 01:10:56;;;;;;;;;;;;;;;24.41;43.60;97146.78;4204113;28;7648;-62
2023/08/10 01:13:07;;;;;;;;;;;;;;;24.40;43.88;97143.25;4219329;28;5621;-62
2023/08/10 01:15:16;;;;;;;;;;;;;;;24.37;44.05;97136.53;4201764;28;6320;-63
2023/08/10 01:17:27;;;;;;;;;;;;;;;24.38;43.85;97140.84;4219713;28;5613;-63
2023/08/10 01:19:35;;;;;;;;;;;;;;;24.37;43.76;97138.41;4220031;28;5616;-63
2023/08/10 01:21:51;;;;;;;;;;;;;;;24.37;43.65;97139.22;4219493;28;6346;-62
2023/08/10 01:23:56;;;;;;;;;;;;;;;24.38;43.88;97143.53;4212658;28;5610;-63
2023/08/10 01:26:01;;;;;;;;;;;;;;;24.37;43.62;97139.22;4219781;28;5612;-63
2023/08/10 01:28:04;;;;;;;;;;;;;;;24.38;43.88;97140.84;4219719;28;5613;-63
2023/08/10 01:30:08;;;;;;;;;;;;;;;24.38;43.73;97143.53;4218582;28;5703;-63
2023/08/10 01:32:15;;;;;;;;;;;;;;;24.38;44.16;97142.72;4219253;28;5741;-63
2023/08/10 01:34:18;;;;;;;;;;;;;;;24.38;43.68;97137.34;4219500;28;5811;-63
2023/08/10 01:36:21;;;;;;;;;;;;;;;24.36;43.78;97145.72;4219383;28;5636;-62
2023/08/10 01:38:24;;;;;;;;;;;;;;;24.36;44.10;97139.50;4219173;28;5695;-62
2023/08/10 01:40:27;;;;;;;;;;;;;;;24.35;44.03;97140.56;4219477;28;5716;-63
2023/08/10 01:42:31;;;;;;;;;;;;;;;24.36;43.73;97142.19;4209977;28;5605;-61
2023/08/10 01:44:34;;;;;;;;;;;;;;;24.34;44.17;97145.16;4217139;28;5648;-62
2023/08/10 01:46:40;;;;;;;;;;;;;;;24.32;44.01;97141.91;4217875;28;5612;-62
2023/08/10 01:48:45;;;;;;;;;;;;;;;24.30;43.84;97135.97;4218227;28;5703;-62
2023/08/10 01:50:51;;;;;;;;;;;;;;;24.29;43.82;97139.75;4218951;28;5598;-62
2023/08/10 01:52:56;;;;;;;;;;;;;;;24.27;44.23;97139.22;4219216;28;5617;-62
2023/08/10 01:54:59;;;;;;;;;;;;;;;24.25;44.08;97141.38;4219260;28;5203;-62
2023/08/10 01:57:02;;;;;;;;;;;;;;;24.25;43.99;97149.47;4219195;28;5758;-62
2023/08/10 01:59:07;;;;;;;;;;;;;;;24.26;43.75;97144.88;4219297;28;5613;-63
2023/08/10 02:01:10;;;;;;;;;;;;;;;24.26;44.08;97134.88;4218980;28;5621;-62
2023/08/10 02:03:13;;;;;;;;;;;;;;;24.27;44.30;97136.50;4218971;28;6667;-63
2023/08/10 02:05:16;;;;;;;;;;;;;;;24.25;44.16;97141.38;4219093;28;5605;-63
2023/08/10 02:07:19;;;;;;;;;;;;;;;24.26;44.33;97131.38;4218949;28;5711;-61
2023/08/10 02:09:22;;;;;;;;;;;;;;;24.25;44.23;97144.06;4219065;28;5622;-61
2023/08/10 02:11:26;;;;;;;;;;;;;;;24.26;43.99;97139.47;4219118;28;5712;-62
2023/08/10 02:13:28;;;;;;;;;;;;;;;24.24;44.21;97137.06;4219084;28;5628;-62
2023/08/10 02:15:32;;;;;;;;;;;;;;;24.24;44.06;97136.25;4218412;28;5609;-62
2023/08/10 02:17:36;;;;;;;;;;;;;;;24.23;44.26;97140.81;4218519;28;5624;-62
2023/08/10 02:19:39;;;;;;;;;;;;;;;24.23;44.34;97146.22;4217582;28;5450;-62
2023/08/10 02:21:42;;;;;;;;;;;;;;;24.22;44.29;97143.78;4218399;28;5715;-62
2023/08/10 02:23:45;;;;;;;;;;;;;;;24.23;44.05;97140.81;4218372;28;5859;-61
2023/08/10 02:25:48;;;;;;;;;;;;;;;24.23;44.38;97150.81;4218590;28;5684;-62
2023/08/10 02:27:51;;;;;;;;;;;;;;;24.22;44.67;97139.19;4218593;28;5736;-62
2023/08/10 02:29:53;;;;;;;;;;;;;;;24.22;44.16;97155.41;4218802;28;5680;-62
2023/08/10 02:31:57;;;;;;;;;;;;;;;24.23;44.36;97146.22;4218478;28;5616;-61
2023/08/10 02:34:00;;;;;;;;;;;;;;;24.23;44.37;97150.81;4218631;28;5699;-62
2023/08/10 02:36:04;;;;;;;;;;;;;;;24.20;44.73;97146.75;4218630;28;5621;-63
2023/08/10 02:38:06;;;;;;;;;;;;;;;24.20;44.94;97157.56;4217451;28;5616;-63
2023/08/10 02:40:11;;;;;;;;;;;;;;;24.19;44.65;97147.03;4218340;28;5609;-63
2023/08/10 02:42:14;;;;;;;;;;;;;;;24.18;44.73;97146.22;4218432;28;5712;-63
2023/08/10 02:44:19;;;;;;;;;;;;;;;24.18;45.07;97148.94;4218489;28;5729;-62
2023/08/10 02:46:22;;;;;;;;;;;;;;;24.17;44.55;97147.31;4217228;28;5779;-62
2023/08/10 02:48:26;;;;;;;;;;;;;;;24.16;44.77;97151.09;4217881;28;5739;-62
2023/08/10 02:50:29;;;;;;;;;;;;;;;24.15;45.00;97149.47;4218227;28;5092;-62
2023/08/10 02:52:32;;;;;;;;;;;;;;;24.13;44.75;97146.25;4218071;28;5854;-62
2023/08/10 02:54:35;;;;;;;;;;;;;;;24.12;45.29;97141.91;4218304;28;5657;-62
2023/08/10 02:56:38;;;;;;;;;;;;;;;24.12;45.29;97150.00;4218075;28;5056;-62
2023/08/10 02:58:41;;;;;;;;;;;;;;;24.11;44.95;97149.19;4218087;28;5605;-62
2023/08/10 03:00:44;;;;;;;;;;;;;;;24.12;45.46;97144.59;4208391;28;5616;-62
2023/08/10 03:02:50;;;;;;;;;;;;;;;24.11;45.03;97153.78;4217973;28;5798;-62
2023/08/10 03:04:54;;;;;;;;;;;;;;;24.10;45.23;97152.16;4218099;28;5597;-62
2023/08/10 03:06:56;;;;;;;;;;;;;;;24.09;45.15;97155.94;4218322;28;5629;-62
2023/08/10 03:08:59;;;;;;;;;;;;;;;24.10;45.13;97162.97;4217991;28;5726;-62
2023/08/10 03:11:03;;;;;;;;;;;;;;;24.09;44.99;97166.75;4217725;28;5748;-62
2023/08/10 03:13:07;;;;;;;;;;;;;;;24.08;45.32;97171.34;4217986;28;5613;-62
2023/08/10 03:15:11;;;;;;;;;;;;;;;24.09;45.04;97166.75;4217092;28;5621;-62
2023/08/10 03:17:14;;;;;;;;;;;;;;;24.07;45.32;97171.63;4217910;28;5704;-62
2023/08/10 03:19:17;;;;;;;;;;;;;;;24.06;45.21;97167.31;4216962;28;5716;-62
2023/08/10 03:21:21;;;;;;;;;;;;;;;24.05;45.59;97168.38;4216988;28;5632;-62
2023/08/10 03:23:24;;;;;;;;;;;;;;;24.02;45.61;97168.94;4217897;28;5838;-62
2023/08/10 03:25:27;;;;;;;;;;;;;;;24.03;45.47;97170.56;4217763;28;5242;-62
2023/08/10 03:27:30;;;;;;;;;;;;;;;24.03;45.41;97173.25;4217866;28;6295;-62
2023/08/10 03:29:33;;;;;;;;;;;;;;;24.02;45.46;97174.34;4217587;28;6407;-62
2023/08/10 03:31:36;;;;;;;;;;;;;;;24.02;45.80;97179.75;4217470;28;5786;-62
2023/08/10 03:33:40;;;;;;;;;;;;;;;24.00;45.71;97171.88;4217768;28;5729;-62
2023/08/10 03:35:43;;;;;;;;;;;;;;;24.02;45.92;97179.75;4217600;28;5612;-62
2023/08/10 03:37:47;;;;;;;;;;;;;;;23.99;45.71;97183.75;4216928;28;5080;-62
2023/08/10 03:39:50;;;;;;;;;;;;;;;23.99;46.10;97177.56;4217520;28;5620;-62
2023/08/10 03:41:53;;;;;;;;;;;;;;;23.95;46.12;97181.88;4217196;28;5691;-62
2023/08/10 03:43:56;;;;;;;;;;;;;;;23.91;46.18;97180.81;4217629;28;5700;-62
2023/08/10 03:45:59;;;;;;;;;;;;;;;23.92;46.05;97188.63;4215580;28;6339;-63
2023/08/10 03:48:02;;;;;;;;;;;;;;;23.93;46.28;97181.34;4217504;28;5640;-62
2023/08/10 03:50:07;;;;;;;;;;;;;;;23.92;46.09;97187.84;4217449;28;5842;-62
2023/08/10 03:52:10;;;;;;;;;;;;;;;23.90;45.94;97193.50;4216714;28;5726;-62
2023/08/10 03:54:14;;;;;;;;;;;;;;;23.89;45.96;97196.44;4216722;28;6340;-62
2023/08/10 03:56:17;;;;;;;;;;;;;;;23.89;45.86;97196.44;4209846;28;5775;-61
2023/08/10 09:53:09;;;;;;;;;;;;;;;22.88;56.38;97227.41;4230279;27;10252;-63
2023/08/10 09:55:13;;;;;;;;;;;;;;;23.19;55.67;97229.16;4230513;28;5751;-63
2023/08/10 09:57:19;;;;;;;;;;;;;;;23.44;55.22;97225.75;4230463;28;5672;-64
2023/08/10 09:59:22;;;;;;;;;;;;;;;23.61;55.02;97236.34;4230411;28;5774;-64
2023/08/10 10:01:25;;;;;;;;;;;;;;;23.76;54.43;97233.69;4230332;28;5798;-64
2023/08/10 10:03:29;;;;;;;;;;;;;;;23.86;54.07;97216.69;4222586;28;5684;-65
2023/08/10 10:05:33;;;;;;;;;;;;;;;23.95;54.09;97208.88;4225780;28;5852;-65
2023/08/10 10:07:39;;;;;;;;;;;;;;;24.03;53.31;97201.06;4227105;28;5784;-66
2023/08/10 10:09:46;;;;;;;;;;;;;;;24.10;53.14;97200.78;4229970;28;5717;-65
2023/08/10 10:11:51;;;;;;;;;;;;;;;24.17;52.99;97185.13;4229930;28;5681;-65
2023/08/10 10:13:54;;;;;;;;;;;;;;;24.22;52.72;97181.59;4228019;28;5764;-64
2023/08/10 10:15:57;;;;;;;;;;;;;;;24.28;52.65;97181.34;4230096;28;5697;-65
2023/08/10 10:17:59;;;;;;;;;;;;;;;24.34;52.19;97180.28;4230337;28;5764;-65
2023/08/10 10:20:04;;;;;;;;;;;;;;;24.38;51.85;97181.38;4230317;28;6192;-65
2023/08/10 10:22:07;;;;;;;;;;;;;;;24.43;51.96;97180.53;4222097;28;5670;-65
2023/08/10 10:24:12;;;;;;;;;;;;;;;24.48;51.49;97190.56;4230299;28;6845;-64
2023/08/10 10:26:20;;;;;;;;;;;;;;;24.50;51.91;97191.91;4230112;28;5775;-65
2023/08/10 10:28:23;;;;;;;;;;;;;;;24.52;51.66;97203.22;4230127;28;5905;-64
2023/08/10 10:30:26;;;;;;;;;;;;;;;24.57;51.25;97205.09;4230350;28;5681;-64
2023/08/10 10:32:29;;;;;;;;;;;;;;;24.58;51.18;97212.16;4229882;28;5781;-64
2023/08/10 10:34:33;;;;;;;;;;;;;;;24.60;51.56;97212.69;4229815;28;5776;-64
2023/08/10 10:36:36;;;;;;;;;;;;;;;24.61;51.02;97200.81;4230181;28;5672;-63
2023/08/10 10:38:40;;;;;;;;;;;;;;;24.62;51.43;97197.00;4230066;28;5673;-64
2023/08/10 10:40:42;;;;;;;;;;;;;;;24.65;51.22;97208.06;4230127;28;5784;-64
2023/08/10 10:43:11;;;;;;;;;;;;;;;24.67;51.15;97210.50;4219849;28;5724;-64
2023/08/10 10:45:15;;;;;;;;;;;;;;;24.69;50.88;97213.78;4230045;28;5768;-65
2023/08/10 10:47:18;;;;;;;;;;;;;;;24.70;50.67;97220.78;4228566;28;5680;-65
2023/08/10 10:49:22;;;;;;;;;;;;;;;24.71;50.49;97217.00;4226818;28;5680;-65
2023/08/10 10:51:25;;;;;;;;;;;;;;;24.72;50.11;97217.81;4229407;28;5942;-64
2023/08/10 10:53:28;;;;;;;;;;;;;;;24.73;50.47;97228.34;4221982;28;5854;-64
2023/08/10 10:55:39;;;;;;;;;;;;;;;24.77;49.87;97225.91;4209916;28;6449;-65
2023/08/10 10:57:45;;;;;;;;;;;;;;;24.79;49.75;97227.25;4218252;28;6480;-65
2023/08/10 10:59:54;;;;;;;;;;;;;;;24.81;49.48;97218.88;4218476;28;5793;-65
2023/08/10 11:01:58;;;;;;;;;;;;;;;24.83;49.65;97219.41;4218316;28;5668;-65
2023/08/10 11:04:01;;;;;;;;;;;;;;;24.82;49.60;97207.78;4215576;28;5844;-65
2023/08/10 11:06:04;;;;;;;;;;;;;;;24.82;49.30;97213.19;4216915;28;5689;-64
2023/08/10 11:08:08;;;;;;;;;;;;;;;24.85;49.17;97218.03;4213918;28;5752;-64
2023/08/10 11:10:12;;;;;;;;;;;;;;;24.87;48.75;97213.16;4217521;28;6530;-64
2023/08/10 11:12:18;;;;;;;;;;;;;;;24.90;49.10;97215.31;4218132;28;5682;-64
2023/08/10 11:14:21;;;;;;;;;;;;;;;24.93;48.59;97217.50;4211283;28;5896;-61
2023/08/10 11:16:26;;;;;;;;;;;;;;;24.94;48.91;97210.19;4209638;28;7833;-66
2023/08/10 11:18:29;;;;;;;;;;;;;;;24.96;48.34;97214.22;4217037;28;5905;-62
2023/08/10 11:20:32;;;;;;;;;;;;;;;24.98;48.83;97212.06;4218185;28;5670;-62
2023/08/10 11:22:38;;;;;;;;;;;;;;;25.01;48.43;97201.78;4217006;28;7859;-62
2023/08/10 11:24:41;;;;;;;;;;;;;;;25.04;48.41;97198.56;4215454;28;5768;-62
2023/08/10 11:26:44;;;;;;;;;;;;;;;25.05;48.62;97195.56;4209679;28;5676;-62
2023/08/10 11:28:47;;;;;;;;;;;;;;;25.06;48.27;97202.59;4212604;28;5791;-62
2023/08/10 11:30:50;;;;;;;;;;;;;;;25.08;48.50;97205.03;4207517;28;5763;-61
2023/08/10 11:32:55;;;;;;;;;;;;;;;25.09;48.11;97215.56;4217791;28;5779;-62
2023/08/10 11:34:57;;;;;;;;;;;;;;;25.10;48.03;97213.66;4217360;28;6500;-62
2023/08/10 11:37:00;;;;;;;;;;;;;;;25.12;48.28;97203.38;4217426;28;5660;-62
2023/08/10 11:39:07;;;;;;;;;;;;;;;25.14;48.36;97195.78;4216821;28;5770;-62
2023/08/10 11:41:10;;;;;;;;;;;;;;;25.15;48.20;97205.56;4209428;28;5721;-62
2023/08/10 11:43:15;;;;;;;;;;;;;;;25.17;48.38;97219.63;4216063;28;5747;-62
2023/08/10 11:45:20;;;;;;;;;;;;;;;25.15;48.29;97217.19;4216674;28;5811;-62
2023/08/10 11:47:22;;;;;;;;;;;;;;;25.16;48.47;97212.59;4217370;28;5799;-62
2023/08/10 11:49:31;;;;;;;;;;;;;;;25.18;48.12;97202.28;4216928;28;5864;-62
2023/08/10 11:51:35;;;;;;;;;;;;;;;25.18;48.11;97189.56;4216761;28;5666;-62
2023/08/10 11:53:41;;;;;;;;;;;;;;;25.20;48.19;97186.59;4217059;28;5685;-62
2023/08/10 11:55:45;;;;;;;;;;;;;;;25.20;48.31;97181.97;4216238;28;6480;-62
2023/08/10 11:57:50;;;;;;;;;;;;;;;25.22;47.78;97184.41;4216440;28;5749;-62
2023/08/10 11:59:52;;;;;;;;;;;;;;;25.25;48.35;97184.66;4216978;28;5907;-63
2023/08/10 12:01:57;;;;;;;;;;;;;;;25.29;47.94;97190.34;4216933;28;6826;-63
2023/08/10 12:04:01;;;;;;;;;;;;;;;25.32;48.43;97202.50;4216977;28;5097;-62
2023/08/10 12:06:06;;;;;;;;;;;;;;;25.35;47.93;97193.81;4216126;28;5654;-62
2023/08/10 12:08:11;;;;;;;;;;;;;;;25.37;48.19;97194.34;4209524;28;5697;-62
2023/08/10 12:10:14;;;;;;;;;;;;;;;25.38;48.13;97188.69;4216804;28;7385;-62
2023/08/10 12:12:17;;;;;;;;;;;;;;;25.40;47.90;97189.19;4216682;28;5235;-62
2023/08/10 12:14:21;;;;;;;;;;;;;;;25.41;48.15;97193.53;4216759;28;5689;-62
2023/08/10 12:16:24;;;;;;;;;;;;;;;25.45;47.88;97194.56;4217053;28;5934;-62
2023/08/10 12:18:27;;;;;;;;;;;;;;;25.47;47.76;97192.41;4216832;28;5688;-62
2023/08/10 12:20:30;;;;;;;;;;;;;;;25.48;47.82;97196.75;4217402;28;5763;-62
2023/08/10 12:22:41;;;;;;;;;;;;;;;25.51;47.92;97193.47;4216933;28;5697;-63
2023/08/10 12:24:44;;;;;;;;;;;;;;;25.53;47.79;97196.72;4216726;28;5760;-61
2023/08/10 12:26:48;;;;;;;;;;;;;;;25.55;47.86;97188.31;4216534;28;5674;-62
2023/08/10 12:28:52;;;;;;;;;;;;;;;25.58;47.92;97187.72;4215046;28;5891;-62
2023/08/10 12:30:55;;;;;;;;;;;;;;;25.61;47.45;97187.19;4214086;28;5860;-61
2023/08/10 12:32:59;;;;;;;;;;;;;;;25.62;47.41;97188.81;4210762;28;5794;-62
2023/08/10 12:35:01;;;;;;;;;;;;;;;25.63;47.39;97189.63;4210941;28;5688;-62
2023/08/10 12:37:04;;;;;;;;;;;;;;;25.63;47.34;97185.00;4212427;28;5677;-61
2023/08/10 12:39:09;;;;;;;;;;;;;;;25.63;47.69;97195.03;4212527;28;5592;-62
2023/08/10 12:41:12;;;;;;;;;;;;;;;25.63;47.17;97187.72;4211429;28;5684;-62
2023/08/10 12:43:16;;;;;;;;;;;;;;;25.64;47.25;97193.94;4215093;28;5919;-62
2023/08/10 12:45:19;;;;;;;;;;;;;;;25.66;47.10;97199.88;4215023;28;5689;-62
2023/08/10 12:47:22;;;;;;;;;;;;;;;25.66;47.37;97200.69;4212853;28;5895;-62
2023/08/10 12:49:25;;;;;;;;;;;;;;;25.68;47.11;97197.69;4210137;28;5818;-62
2023/08/10 12:51:28;;;;;;;;;;;;;;;25.70;46.90;97192.84;4211655;28;5694;-63
2023/08/10 12:53:30;;;;;;;;;;;;;;;25.70;47.10;97195.53;4207759;28;5763;-62
2023/08/10 12:55:35;;;;;;;;;;;;;;;25.71;47.15;97184.47;4206362;28;6017;-62
2023/08/10 12:57:39;;;;;;;;;;;;;;;25.71;47.04;97164.66;4208888;28;5693;-63
2023/08/10 12:59:41;;;;;;;;;;;;;;;25.74;46.72;97167.66;4210423;28;5082;-63
2023/08/10 13:01:44;;;;;;;;;;;;;;;25.75;46.55;97158.44;4211340;28;5899;-62
2023/08/10 13:03:47;;;;;;;;;;;;;;;25.77;46.62;97148.13;4213230;28;5662;-61
2023/08/10 13:05:50;;;;;;;;;;;;;;;25.78;46.33;97140.81;4211764;28;5994;-61
2023/08/10 13:07:53;;;;;;;;;;;;;;;25.78;45.70;97138.09;4212478;28;5109;-61
2023/08/10 13:09:56;;;;;;;;;;;;;;;25.83;45.29;97129.94;4208469;28;5777;-62
2023/08/10 13:12:01;;;;;;;;;;;;;;;25.86;45.34;97118.53;4212103;28;5673;-62
2023/08/10 13:14:05;;;;;;;;;;;;;;;25.86;44.84;97123.97;4212133;28;5665;-62
2023/08/10 13:16:08;;;;;;;;;;;;;;;25.88;44.80;97116.34;4208059;28;5760;-63
2023/08/10 13:18:10;;;;;;;;;;;;;;;25.92;44.71;97122.00;4207389;28;5817;-62
2023/08/10 13:20:13;;;;;;;;;;;;;;;25.94;44.18;97120.66;4214432;28;5673;-62
2023/08/10 13:22:16;;;;;;;;;;;;;;;25.95;44.42;97116.84;4211663;28;5680;-62
2023/08/10 13:24:19;;;;;;;;;;;;;;;25.96;43.78;97115.75;4210790;28;5810;-62
2023/08/10 13:26:22;;;;;;;;;;;;;;;25.98;43.91;97118.97;4213220;28;5840;-62
2023/08/10 13:28:26;;;;;;;;;;;;;;;26.00;43.81;97124.09;4210478;28;6381;-62
2023/08/10 13:30:29;;;;;;;;;;;;;;;26.01;43.01;97113.00;4212282;28;5728;-62
2023/08/10 13:32:32;;;;;;;;;;;;;;;26.05;43.05;97105.94;4215761;28;5705;-62
2023/08/10 13:34:36;;;;;;;;;;;;;;;26.09;42.90;97111.56;4211212;28;5881;-63
2023/08/10 13:36:39;;;;;;;;;;;;;;;26.12;42.59;97092.03;4212394;28;5796;-63
2023/08/10 13:38:42;;;;;;;;;;;;;;;26.17;42.70;97093.91;4215184;28;5737;-62
2023/08/10 13:40:44;;;;;;;;;;;;;;;26.23;42.73;97073.78;4212741;28;5792;-63
2023/08/10 13:42:48;;;;;;;;;;;;;;;26.23;42.74;97068.34;4215001;28;5850;-63
2023/08/10 13:44:52;;;;;;;;;;;;;;;26.25;42.92;97061.53;4211327;28;5840;-63
2023/08/10 13:46:56;;;;;;;;;;;;;;;26.30;42.76;97055.28;4211298;28;5985;-62
2023/08/10 13:49:00;;;;;;;;;;;;;;;26.31;42.96;97043.34;4211623;28;5780;-62
2023/08/10 13:51:03;;;;;;;;;;;;;;;26.32;43.09;97045.75;4211861;28;5695;-62
2023/08/10 13:53:06;;;;;;;;;;;;;;;26.32;43.64;97051.19;4212584;28;5747;-62
2023/08/10 13:55:08;;;;;;;;;;;;;;;26.33;43.92;97043.84;4210446;28;5759;-62
2023/08/10 13:57:12;;;;;;;;;;;;;;;26.33;44.01;97041.16;4213632;28;5771;-62
2023/08/10 13:59:13;;;;;;;;;;;;;;;26.33;44.61;97041.97;4213223;28;5696;-62
2023/08/10 14:01:18;;;;;;;;;;;;;;;26.37;45.23;97042.22;4215012;28;5824;-63
2023/08/10 14:03:21;;;;;;;;;;;;;;;26.41;46.88;97037.84;4213288;28;5755;-63
2023/08/10 14:05:25;;;;;;;;;;;;;;;26.43;47.01;97034.84;4213047;28;5977;-63
2023/08/10 14:07:28;;;;;;;;;;;;;;;26.45;46.95;97033.44;4212423;28;5890;-62
2023/08/10 14:09:31;;;;;;;;;;;;;;;26.44;46.91;97015.56;4213554;28;5685;-62
2023/08/10 14:11:33;;;;;;;;;;;;;;;26.42;47.18;97009.63;4210564;28;5756;-62
2023/08/10 14:13:36;;;;;;;;;;;;;;;26.42;47.00;97006.94;4212560;28;5682;-63
2023/08/10 14:15:38;;;;;;;;;;;;;;;26.43;46.92;96996.91;4213491;28;5748;-62
2023/08/10 14:17:42;;;;;;;;;;;;;;;26.43;46.62;97000.41;4214261;28;5808;-63
2023/08/10 14:19:46;;;;;;;;;;;;;;;26.46;46.53;96997.13;4213399;28;5868;-63
2023/08/10 14:21:49;;;;;;;;;;;;;;;26.47;46.30;96997.91;4213767;28;5675;-62
2023/08/10 14:23:52;;;;;;;;;;;;;;;26.48;46.23;97005.75;4207326;28;5766;-62
2023/08/10 14:25:55;;;;;;;;;;;;;;;26.49;46.09;96993.00;4205516;28;5751;-62
2023/08/10 14:27:58;;;;;;;;;;;;;;;26.47;45.45;96993.31;4208272;28;6522;-62
2023/08/10 14:30:01;;;;;;;;;;;;;;;26.46;44.65;96986.28;4213259;28;5783;-62
2023/08/10 14:32:04;;;;;;;;;;;;;;;26.47;44.65;96979.75;4212017;28;5768;-63
2023/08/10 14:34:08;;;;;;;;;;;;;;;26.46;44.22;96980.84;4210631;28;5795;-63
2023/08/10 14:36:11;;;;;;;;;;;;;;;26.46;44.27;96972.72;4213552;28;5768;-63
2023/08/10 14:38:14;;;;;;;;;;;;;;;26.47;43.74;96976.22;4207605;28;5926;-62
2023/08/10 14:40:16;;;;;;;;;;;;;;;26.49;43.54;96974.84;4215177;28;5712;-63
2023/08/10 14:42:19;;;;;;;;;;;;;;;26.52;43.47;96970.75;4210260;28;5708;-63
2023/08/10 14:44:22;;;;;;;;;;;;;;;26.53;43.40;96972.38;4217606;28;5658;-63
2023/08/10 14:46:25;;;;;;;;;;;;;;;26.53;43.29;96973.19;4217621;28;5724;-63
2023/08/10 14:48:28;;;;;;;;;;;;;;;26.53;43.28;96970.47;4217428;28;5761;-63
2023/08/10 14:50:32;;;;;;;;;;;;;;;26.56;43.47;96967.16;4217654;28;5680;-63
2023/08/10 14:52:37;;;;;;;;;;;;;;;26.60;43.23;96972.81;4211161;28;5887;-63
2023/08/10 14:54:40;;;;;;;;;;;;;;;26.61;43.36;96956.25;4214837;28;5658;-63
2023/08/10 14:56:43;;;;;;;;;;;;;;;26.60;43.40;96964.66;4217927;28;5755;-63
2023/08/10 14:58:46;;;;;;;;;;;;;;;26.59;43.23;96958.44;4213028;28;5736;-62
2023/08/10 15:00:49;;;;;;;;;;;;;;;26.61;43.18;96967.09;4213075;28;5702;-63
2023/08/10 15:02:51;;;;;;;;;;;;;;;26.61;43.13;96964.38;4217315;28;5830;-63
2023/08/10 15:04:56;;;;;;;;;;;;;;;26.62;43.51;96979.56;4217548;28;6342;-62
2023/08/10 15:07:00;;;;;;;;;;;;;;;26.60;43.25;96979.03;4213725;28;5829;-62
2023/08/10 15:09:04;;;;;;;;;;;;;;;26.62;43.45;96976.84;4211464;28;5670;-63
2023/08/10 15:11:11;;;;;;;;;;;;;;;26.60;43.24;96968.19;4210800;28;5793;-62
2023/08/10 15:13:13;;;;;;;;;;;;;;;26.58;43.51;96973.09;4211031;28;5907;-62
2023/08/10 15:15:19;;;;;;;;;;;;;;;26.59;43.34;96980.13;4217490;28;6324;-62
2023/08/10 15:17:21;;;;;;;;;;;;;;;26.57;43.20;96979.63;4215547;28;5669;-61
2023/08/10 15:19:24;;;;;;;;;;;;;;;26.59;43.36;96990.16;4215469;28;5828;-61
2023/08/10 15:21:27;;;;;;;;;;;;;;;26.56;43.54;96986.16;4216264;28;5771;-62
2023/08/10 15:23:31;;;;;;;;;;;;;;;26.54;43.43;96993.75;4217630;28;5770;-61
2023/08/10 15:25:45;;;;;;;;;;;;;;;26.53;43.48;96994.06;4217734;28;5755;-62
2023/08/10 15:27:50;;;;;;;;;;;;;;;26.53;43.29;96996.78;4214916;28;5880;-62
2023/08/10 15:29:53;;;;;;;;;;;;;;;26.52;43.54;96998.69;4208332;28;5117;-62
2023/08/10 15:31:58;;;;;;;;;;;;;;;26.52;43.47;96990.53;4213718;28;5782;-62
2023/08/10 15:34:01;;;;;;;;;;;;;;;26.55;43.45;97002.72;4211692;28;5849;-62
2023/08/10 15:36:04;;;;;;;;;;;;;;;26.55;43.08;97000.81;4212909;28;5740;-62
2023/08/10 15:38:07;;;;;;;;;;;;;;;26.56;43.40;97009.75;4204919;28;5947;-62
2023/08/10 15:40:12;;;;;;;;;;;;;;;26.56;43.13;97010.53;4208219;28;5876;-60
2023/08/10 15:42:15;;;;;;;;;;;;;;;26.58;43.32;97010.25;4207799;28;5763;-61
2023/08/10 15:44:18;;;;;;;;;;;;;;;26.59;43.02;97015.38;4211537;28;5792;-61
2023/08/10 15:46:22;;;;;;;;;;;;;;;26.61;43.21;97015.09;4213860;28;5763;-63
2023/08/10 15:48:25;;;;;;;;;;;;;;;26.60;42.92;97019.69;4211983;28;5688;-63
2023/08/10 15:50:28;;;;;;;;;;;;;;;26.59;42.79;97015.38;4216619;28;5860;-63
2023/08/10 15:52:32;;;;;;;;;;;;;;;26.59;42.52;97014.56;4216663;28;5841;-63
2023/08/10 15:54:35;;;;;;;;;;;;;;;26.59;42.73;97020.81;4211369;28;5680;-63
2023/08/10 15:56:40;;;;;;;;;;;;;;;26.60;42.57;97024.31;4209568;28;5748;-62
2023/08/10 15:58:43;;;;;;;;;;;;;;;26.63;42.43;97024.56;4216523;28;5681;-64
2023/08/10 16:00:46;;;;;;;;;;;;;;;26.67;42.33;97025.59;4221596;28;5668;-66
2023/08/10 16:02:49;;;;;;;;;;;;;;;26.67;42.36;97013.94;4212489;28;5999;-63
2023/08/10 16:04:52;;;;;;;;;;;;;;;26.67;42.22;97017.44;4211530;28;5744;-63
2023/08/10 16:06:55;;;;;;;;;;;;;;;26.67;41.96;97014.75;4214545;28;5668;-63
2023/08/10 16:08:57;;;;;;;;;;;;;;;26.66;41.90;97018.56;4217285;28;5760;-63
2023/08/10 16:11:00;;;;;;;;;;;;;;;26.65;41.69;97010.72;4217136;28;5077;-63
2023/08/10 16:13:05;;;;;;;;;;;;;;;26.63;41.78;97008.28;4214666;28;5768;-64
2023/08/10 16:15:09;;;;;;;;;;;;;;;26.62;41.77;97009.41;4215005;28;5152;-64
2023/08/10 16:17:12;;;;;;;;;;;;;;;26.63;41.57;97008.28;4213090;28;5746;-62
2023/08/10 16:19:15;;;;;;;;;;;;;;;26.62;41.26;97014.81;4214528;28;5939;-64
2023/08/10 16:21:18;;;;;;;;;;;;;;;26.63;41.37;97030.00;4210014;28;5903;-63
2023/08/10 16:23:21;;;;;;;;;;;;;;;26.62;41.00;97027.56;4212544;28;5733;-64
2023/08/10 16:25:23;;;;;;;;;;;;;;;26.60;41.19;97030.53;4216735;28;5907;-63
2023/08/10 16:27:26;;;;;;;;;;;;;;;26.58;41.13;97032.75;4217059;28;5755;-62
2023/08/10 16:29:31;;;;;;;;;;;;;;;26.56;41.43;97034.94;4216517;28;6378;-62
2023/08/10 16:31:34;;;;;;;;;;;;;;;26.56;41.46;97036.84;4207967;28;5670;-63
2023/08/10 16:33:37;;;;;;;;;;;;;;;26.54;41.63;97033.63;4213680;28;5676;-64
2023/08/10 16:35:40;;;;;;;;;;;;;;;26.54;41.32;97042.56;4213889;28;5795;-65
2023/08/10 16:37:44;;;;;;;;;;;;;;;26.52;41.59;97039.34;4212063;28;5795;-61
2023/08/10 16:39:47;;;;;;;;;;;;;;;26.52;41.69;97047.47;4208361;28;5702;-61
2023/08/10 16:41:50;;;;;;;;;;;;;;;26.50;41.58;97041.50;4213235;28;5843;-62
2023/08/10 16:43:52;;;;;;;;;;;;;;;26.50;41.82;97046.94;4214214;28;5673;-63
2023/08/10 16:45:59;;;;;;;;;;;;;;;26.49;41.69;97050.75;4214940;28;5862;-62
2023/08/10 16:48:02;;;;;;;;;;;;;;;26.47;42.01;97042.09;4215766;28;6548;-62